Time;durP1;ratioP1;P1;durP2;ratioP2;P2;SDS_P1;SDS_P2;PMS_P1;PMS_P2;Temp;Humidity;BMP_temperature;BMP_pressure;BME280_temperature;BME280_humidity;BME280_pressure;Samples;Min_cycle;Max_cycle;Signal;HPM_P1;HPM_P2
2022/09/28 00:02:07;;;;;;;30.58;13.77;;;8.30;99.90;;;;;;5093232;28;20036;-68
2022/09/28 00:04:33;;;;;;;19.45;11.05;;;8.30;99.90;;;;;;5092104;28;20044;-68
2022/09/28 00:06:59;;;;;;;24.00;12.70;;;8.30;99.90;;;;;;5055044;28;20583;-68
2022/09/28 00:09:25;;;;;;;15.18;10.13;;;8.30;99.90;;;;;;5055146;28;20047;-68
2022/09/28 00:11:52;;;;;;;23.48;14.07;;;8.30;99.90;;;;;;5055248;28;20438;-68
2022/09/28 00:14:19;;;;;;;26.67;13.00;;;8.20;99.90;;;;;;5038119;28;20048;-68
2022/09/28 00:16:48;;;;;;;72.45;19.30;;;8.20;99.90;;;;;;5037816;28;20052;-68
2022/09/28 00:19:14;;;;;;;22.38;12.60;;;8.20;99.90;;;;;;5072889;28;20111;-68
2022/09/28 00:21:41;;;;;;;31.00;14.00;;;8.20;99.90;;;;;;5038299;28;20669;-68
2022/09/28 00:24:12;;;;;;;22.42;11.40;;;8.20;99.90;;;;;;5072491;28;20128;-68
2022/09/28 00:27:00;;;;;;;26.95;11.52;;;8.20;99.90;;;;;;5072618;28;20044;-68
2022/09/28 00:29:30;;;;;;;63.25;14.43;;;8.20;99.90;;;;;;5054772;28;20048;-68
2022/09/28 00:32:01;;;;;;;58.95;12.30;;;8.20;99.90;;;;;;5036086;28;20119;-68
2022/09/28 00:34:28;;;;;;;;;;;8.10;99.90;;;;;;5054803;28;20079;-68
2022/09/28 00:36:55;;;;;;;21.55;9.68;;;8.10;99.90;;;;;;5037701;28;20007;-68
2022/09/28 00:39:21;;;;;;;20.73;11.25;;;8.10;99.90;;;;;;5054539;28;20066;-68
2022/09/28 00:41:47;;;;;;;20.27;11.40;;;8.10;99.90;;;;;;5054738;28;20540;-68
2022/09/28 00:44:26;;;;;;;19.77;12.27;;;8.10;99.90;;;;;;5055789;28;20127;-68
2022/09/28 00:47:11;;;;;;;22.35;12.10;;;8.10;99.90;;;;;;5055822;28;20037;-68
2022/09/28 00:49:47;;;;;;;25.60;12.80;;;8.10;99.90;;;;;;5090326;28;20039;-68
2022/09/28 00:52:21;;;;;;;18.65;11.68;;;8.10;99.90;;;;;;5057275;28;20079;-68
2022/09/28 00:54:49;;;;;;;19.42;11.82;;;8.10;99.90;;;;;;5092076;28;20035;-68
2022/09/28 00:57:17;;;;;;;28.80;14.10;;;8.10;99.90;;;;;;5073723;28;20606;-68
2022/09/28 00:59:43;;;;;;;19.67;10.90;;;8.10;99.90;;;;;;5089958;28;20036;-68
2022/09/28 01:02:09;;;;;;;18.40;11.73;;;8.10;99.90;;;;;;5092225;28;20127;-68
2022/09/28 01:04:37;;;;;;;20.77;11.52;;;8.10;99.90;;;;;;5074235;28;20427;-68
2022/09/28 01:07:03;;;;;;;22.70;13.48;;;8.10;99.90;;;;;;5074025;28;20044;-68
2022/09/28 01:09:29;;;;;;;18.88;10.95;;;8.10;99.90;;;;;;5073732;28;20372;-68
2022/09/28 01:11:55;;;;;;;16.88;10.23;;;8.10;99.90;;;;;;5092070;28;20040;-68
2022/09/28 01:14:24;;;;;;;19.30;10.90;;;8.10;99.90;;;;;;5070684;28;20052;-68
2022/09/28 01:17:14;;;;;;;17.48;10.38;;;8.10;99.90;;;;;;5071252;28;20287;-68
2022/09/28 01:20:20;;;;;;;18.83;11.13;;;8.10;99.90;;;;;;5071322;28;20648;-68
2022/09/28 01:23:11;;;;;;;22.02;11.10;;;8.10;99.90;;;;;;5071581;28;20036;-68
2022/09/28 01:25:52;;;;;;;21.65;11.20;;;8.10;99.90;;;;;;5072334;28;20044;-68
2022/09/28 01:28:22;;;;;;;13.73;9.43;;;8.10;99.90;;;;;;5069891;28;20052;-68
2022/09/28 01:31:11;;;;;;;14.32;9.45;;;8.10;99.90;;;;;;5069207;28;20048;-68
2022/09/28 01:33:45;;;;;;;17.48;10.45;;;8.10;99.90;;;;;;5070982;28;20101;-68
2022/09/28 01:36:25;;;;;;;16.88;9.63;;;8.10;99.90;;;;;;5071493;28;20036;-68
2022/09/28 01:38:59;;;;;;;16.83;10.43;;;8.10;99.90;;;;;;5071565;28;20048;-68
2022/09/28 01:41:28;;;;;;;16.13;10.65;;;8.10;99.90;;;;;;5071474;28;20053;-68
2022/09/28 01:44:01;;;;;;;17.52;11.88;;;8.10;99.90;;;;;;5071386;28;20045;-68
2022/09/28 01:46:40;;;;;;;16.70;9.48;;;8.10;99.90;;;;;;5054414;28;20040;-68
2022/09/28 01:49:35;;;;;;;16.48;10.35;;;8.10;99.90;;;;;;5071611;28;20397;-68
2022/09/28 01:52:20;;;;;;;21.45;11.80;;;8.10;99.90;;;;;;5067704;28;20508;-68
2022/09/28 01:55:02;;;;;;;18.88;10.55;;;8.10;99.90;;;;;;5071248;28;20044;-68
2022/09/28 01:57:37;;;;;;;21.90;11.35;;;8.00;99.90;;;;;;5072750;28;20039;-68
2022/09/28 02:00:12;;;;;;;108.05;24.23;;;8.00;99.90;;;;;;5069111;28;20044;-68
2022/09/28 02:03:21;;;;;;;31.55;14.60;;;7.90;99.90;;;;;;5072445;28;20029;-68
2022/09/28 02:05:53;;;;;;;28.90;12.40;;;7.90;99.90;;;;;;4967178;28;20085;-68
2022/09/28 02:08:41;;;;;;;28.75;13.55;;;7.80;99.90;;;;;;5071163;28;20043;-68
2022/09/28 02:11:15;;;;;;;47.80;11.30;;;7.80;99.90;;;;;;5071144;28;20542;-68
2022/09/28 02:13:57;;;;;;;38.80;11.05;;;7.70;99.90;;;;;;5071029;28;20376;-68
2022/09/28 02:16:39;;;;;;;14.88;10.93;;;7.70;99.90;;;;;;5072361;28;20480;-68
2022/09/28 02:19:16;;;;;;;15.50;10.52;;;7.70;99.90;;;;;;5071410;28;20389;-68
2022/09/28 02:21:50;;;;;;;29.85;13.38;;;7.60;99.90;;;;;;5054318;28;20094;-68
2022/09/28 02:24:22;;;;;;;142.13;16.50;;;7.60;99.90;;;;;;5054327;28;20049;-68
2022/09/28 02:26:51;;;;;;;164.15;19.60;;;7.60;99.90;;;;;;5070974;28;20052;-68
2022/09/28 02:29:17;;;;;;;47.53;11.60;;;7.50;99.90;;;;;;5072319;28;20459;-68
2022/09/28 02:31:43;;;;;;;14.75;7.47;;;7.50;99.90;;;;;;5068878;28;20050;-68
2022/09/28 02:34:09;;;;;;;17.30;6.63;;;7.40;99.90;;;;;;5070850;28;20119;-68
2022/09/28 02:36:35;;;;;;;23.00;11.68;;;7.40;99.90;;;;;;5070931;28;20102;-68
2022/09/28 02:39:01;;;;;;;27.80;12.93;;;7.40;99.90;;;;;;5071810;28;20041;-68
2022/09/28 02:42:06;;;;;;;28.00;14.13;;;7.40;99.90;;;;;;5074956;28;20039;-67
2022/09/28 02:45:01;;;;;;;18.63;12.38;;;7.40;99.90;;;;;;5057968;28;20139;-67
2022/09/28 02:47:57;;;;;;;29.55;14.48;;;7.40;99.90;;;;;;5057943;28;20045;-68
2022/09/28 02:50:44;;;;;;;187.75;26.33;;;7.40;99.90;;;;;;5074578;28;20041;-68
2022/09/28 02:53:34;;;;;;;200.25;28.95;;;7.40;99.90;;;;;;5074572;28;20044;-67
2022/09/28 02:56:35;;;;;;;140.48;22.23;;;7.40;99.90;;;;;;5074498;28;20042;-67
2022/09/28 02:59:19;;;;;;;52.63;17.15;;;7.40;99.90;;;;;;5058071;28;20067;-67
2022/09/28 03:02:03;;;;;;;38.38;16.15;;;7.40;99.90;;;;;;5072186;28;20500;-68
2022/09/28 03:04:40;;;;;;;19.05;11.85;;;7.40;99.90;;;;;;5057670;28;20040;-67
2022/09/28 03:07:29;;;;;;;35.92;16.83;;;7.40;99.90;;;;;;5074237;28;20047;-67
2022/09/28 03:10:10;;;;;;;30.52;14.15;;;7.50;99.90;;;;;;5074201;28;20105;-67
2022/09/28 03:12:37;;;;;;;50.78;16.52;;;7.50;99.90;;;;;;5057411;28;20097;-67
2022/09/28 03:15:34;;;;;;;38.28;14.05;;;7.50;99.90;;;;;;5058842;28;20060;-67
2022/09/28 03:18:00;;;;;;;94.20;19.92;;;7.50;99.90;;;;;;5044186;28;20072;-67
2022/09/28 03:20:27;;;;;;;93.63;18.27;;;7.50;99.90;;;;;;5075553;28;20079;-67
2022/09/28 03:22:53;;;;;;;128.88;20.83;;;7.50;99.90;;;;;;5075282;28;20627;-67
2022/09/28 03:25:20;;;;;;;113.07;17.27;;;7.50;99.90;;;;;;5057581;28;20044;-67
2022/09/28 03:27:46;;;;;;;119.00;20.58;;;7.50;99.90;;;;;;5040640;28;20481;-67
2022/09/28 03:30:13;;;;;;;72.50;13.43;;;7.50;99.90;;;;;;5073070;28;20032;-67
2022/09/28 03:32:39;;;;;;;95.20;14.30;;;7.50;99.90;;;;;;5057248;28;20094;-67
2022/09/28 03:35:06;;;;;;;112.32;15.23;;;7.50;99.90;;;;;;5074939;28;20123;-67
2022/09/28 03:37:32;;;;;;;162.55;23.38;;;7.50;99.90;;;;;;5040783;28;20099;-67
2022/09/28 03:39:58;;;;;;;116.80;15.07;;;7.40;99.90;;;;;;5057275;28;20037;-67
2022/09/28 03:42:24;;;;;;;127.47;16.77;;;7.40;99.90;;;;;;5040585;28;20346;-67
2022/09/28 03:44:50;;;;;;;163.90;21.77;;;7.40;99.90;;;;;;5074717;28;20041;-67
2022/09/28 03:47:16;;;;;;;189.75;21.75;;;7.40;99.90;;;;;;5057018;28;20036;-67
2022/09/28 03:49:44;;;;;;;169.82;20.35;;;7.40;99.90;;;;;;5075011;28;20044;-67
2022/09/28 03:52:10;;;;;;;175.15;22.40;;;7.40;99.90;;;;;;5039547;28;20055;-67
2022/09/28 03:54:36;;;;;;;173.55;26.55;;;7.40;99.90;;;;;;5056529;28;20126;-67
2022/09/28 03:57:02;;;;;;;138.40;24.45;;;7.40;99.90;;;;;;5074621;28;20484;-67
2022/09/28 03:59:29;;;;;;;99.32;18.15;;;7.40;99.90;;;;;;5056665;28;20115;-67
2022/09/28 04:01:55;;;;;;;113.53;21.23;;;7.40;99.90;;;;;;5072248;28;20119;-67
2022/09/28 04:04:21;;;;;;;106.47;20.23;;;7.40;99.90;;;;;;5074401;28;20179;-67
2022/09/28 04:06:47;;;;;;;118.70;25.05;;;7.50;99.90;;;;;;5074531;28;20040;-67
2022/09/28 04:09:13;;;;;;;97.55;20.23;;;7.40;99.90;;;;;;5056702;28;20055;-67
2022/09/28 04:11:38;;;;;;;34.58;14.88;;;7.50;99.90;;;;;;5056408;28;20086;-66
2022/09/28 04:14:04;;;;;;;66.88;22.65;;;7.50;99.90;;;;;;5056142;28;20131;-66
2022/09/28 04:16:30;;;;;;;49.35;18.92;;;7.50;99.90;;;;;;5039572;28;20447;-66
2022/09/28 04:18:59;;;;;;;30.88;15.90;;;7.50;99.90;;;;;;5056232;28;20040;-66
2022/09/28 04:21:25;;;;;;;34.63;17.42;;;7.50;99.90;;;;;;5074142;28;20445;-66
2022/09/28 04:23:52;;;;;;;29.67;16.95;;;7.60;99.90;;;;;;5056319;28;20082;-66
2022/09/28 04:26:23;;;;;;;25.52;15.88;;;7.60;99.90;;;;;;5056284;28;20495;-66
2022/09/28 04:31:41;;;;;;;27.95;15.75;;;7.60;99.90;;;;;;5053891;28;20048;-66
2022/09/28 04:34:09;;;;;;;27.08;15.65;;;7.70;99.90;;;;;;5055819;28;20670;-66
2022/09/28 04:36:36;;;;;;;23.70;14.52;;;7.70;99.90;;;;;;5055915;28;20042;-66
2022/09/28 04:39:02;;;;;;;26.23;15.10;;;7.70;99.90;;;;;;5073745;28;20630;-66
2022/09/28 04:41:28;;;;;;;22.65;14.15;;;7.70;99.90;;;;;;5073640;28;20036;-66
2022/09/28 04:43:53;;;;;;;23.00;14.50;;;7.70;99.90;;;;;;5073819;28;20063;-65
2022/09/28 04:46:20;;;;;;;21.98;15.20;;;7.70;99.90;;;;;;5055718;28;20530;-66
2022/09/28 04:48:45;;;;;;;32.03;17.92;;;7.80;99.90;;;;;;5055694;28;20048;-65
2022/09/28 04:51:11;;;;;;;23.08;15.18;;;7.80;99.90;;;;;;5055852;28;20102;-65
2022/09/28 04:53:37;;;;;;;24.02;15.18;;;7.80;99.90;;;;;;5055701;28;20044;-65
2022/09/28 04:56:09;;;;;;;24.48;15.57;;;7.80;99.90;;;;;;5055534;28;20036;-66
2022/09/28 04:58:35;;;;;;;24.88;16.65;;;7.90;99.90;;;;;;5055497;28;20480;-66
2022/09/28 05:01:04;;;;;;;28.10;15.68;;;7.90;99.90;;;;;;5071044;28;20492;-66
2022/09/28 05:03:30;;;;;;;32.80;18.30;;;7.90;99.90;;;;;;5073179;28;20477;-66
2022/09/28 05:05:56;;;;;;;25.33;16.38;;;7.90;99.90;;;;;;5055560;28;20039;-66
2022/09/28 05:08:22;;;;;;;26.33;18.63;;;7.90;99.90;;;;;;5055550;28;20445;-66
2022/09/28 05:10:55;;;;;;;19.80;15.57;;;7.90;99.90;;;;;;5073147;28;20036;-66
2022/09/28 05:13:21;;;;;;;28.95;18.58;;;7.90;99.90;;;;;;5073196;28;20048;-66
2022/09/28 05:15:53;;;;;;;30.80;18.63;;;8.00;99.90;;;;;;5055389;28;20083;-66
2022/09/28 05:18:19;;;;;;;27.63;17.77;;;8.00;99.90;;;;;;5038701;28;20037;-66
2022/09/28 05:20:45;;;;;;;27.38;16.48;;;8.00;99.90;;;;;;5055165;28;20056;-66
2022/09/28 05:23:11;;;;;;;26.85;17.38;;;8.00;99.90;;;;;;5055311;28;20045;-66
2022/09/28 05:25:38;;;;;;;22.58;15.57;;;8.00;99.90;;;;;;5055147;28;20101;-66
2022/09/28 05:28:05;;;;;;;23.95;18.10;;;8.00;99.90;;;;;;5072985;28;20047;-65
2022/09/28 05:30:32;;;;;;;24.45;15.65;;;8.00;99.90;;;;;;5070752;28;20181;-66
2022/09/28 05:32:58;;;;;;;26.40;16.63;;;7.90;99.90;;;;;;5054992;28;20040;-65
2022/09/28 05:35:24;;;;;;;25.02;16.70;;;7.90;99.90;;;;;;5038371;28;20036;-65
2022/09/28 05:37:49;;;;;;;31.00;17.73;;;7.90;99.90;;;;;;5055246;28;20468;-65
2022/09/28 05:40:15;;;;;;;29.73;17.42;;;7.90;99.90;;;;;;5072942;28;20531;-65
2022/09/28 05:42:41;;;;;;;29.17;17.73;;;7.90;99.90;;;;;;5038622;28;20052;-65
2022/09/28 05:45:09;;;;;;;37.05;19.77;;;7.90;99.90;;;;;;5054874;28;20041;-65
2022/09/28 05:47:42;;;;;;;43.08;21.48;;;7.90;99.90;;;;;;5072817;28;20087;-65
2022/09/28 05:50:10;;;;;;;48.40;20.48;;;7.90;99.90;;;;;;5072857;28;20040;-65
2022/09/28 05:52:39;;;;;;;29.27;17.27;;;7.90;99.90;;;;;;5054820;28;20127;-65
2022/09/28 05:55:06;;;;;;;43.58;21.63;;;7.80;99.90;;;;;;5038062;28;20048;-65
2022/09/28 05:57:32;;;;;;;29.60;17.80;;;7.80;99.90;;;;;;5072989;28;20119;-65
2022/09/28 05:59:58;;;;;;;30.95;17.42;;;7.80;99.90;;;;;;5052756;28;20143;-65
2022/09/28 06:02:24;;;;;;;33.85;18.40;;;7.80;99.90;;;;;;5054680;28;20468;-65
2022/09/28 06:04:50;;;;;;;24.58;15.23;;;7.80;99.90;;;;;;5054693;28;20127;-65
2022/09/28 06:07:21;;;;;;;23.23;15.02;;;7.80;99.90;;;;;;5054944;28;20036;-65
2022/09/28 06:09:47;;;;;;;23.33;15.98;;;7.80;99.90;;;;;;5054665;28;20678;-65
2022/09/28 06:12:14;;;;;;;22.35;15.30;;;7.80;99.90;;;;;;5037896;28;20124;-65
2022/09/28 06:14:40;;;;;;;27.35;17.33;;;7.80;99.90;;;;;;5056110;28;20065;-65
2022/09/28 06:17:06;;;;;;;33.38;17.73;;;7.80;99.90;;;;;;5057706;28;20050;-65
2022/09/28 06:19:32;;;;;;;25.08;15.98;;;7.80;99.90;;;;;;5056684;28;20044;-65
2022/09/28 06:21:58;;;;;;;32.05;19.33;;;7.70;99.90;;;;;;5058375;28;20064;-65
2022/09/28 06:24:24;;;;;;;24.30;15.93;;;7.80;99.90;;;;;;5058356;28;20040;-65
2022/09/28 06:26:50;;;;;;;24.45;15.70;;;7.70;99.90;;;;;;5058438;28;20040;-65
2022/09/28 06:29:17;;;;;;;40.58;19.67;;;7.80;99.90;;;;;;5058431;28;20090;-65
2022/09/28 06:31:43;;;;;;;27.27;17.20;;;7.70;99.90;;;;;;5056228;28;20044;-65
2022/09/28 06:34:10;;;;;;;50.17;23.88;;;7.70;99.90;;;;;;5058161;28;20119;-65
2022/09/28 06:36:36;;;;;;;39.08;18.80;;;7.70;99.90;;;;;;5076255;28;20041;-65
2022/09/28 06:39:02;;;;;;;33.25;18.40;;;7.70;99.90;;;;;;5058377;28;20039;-65
2022/09/28 06:41:28;;;;;;;56.15;22.88;;;7.70;99.90;;;;;;5058128;28;20075;-65
2022/09/28 06:43:54;;;;;;;36.90;19.50;;;7.80;99.90;;;;;;5057993;28;20041;-65
2022/09/28 06:46:19;;;;;;;100.78;26.20;;;7.80;99.90;;;;;;5058063;28;20048;-65
2022/09/28 06:48:45;;;;;;;168.65;29.75;;;7.80;99.90;;;;;;5075775;28;20052;-65
2022/09/28 06:51:11;;;;;;;183.02;32.65;;;7.80;99.90;;;;;;5064558;28;20036;-65
2022/09/28 06:53:37;;;;;;;260.67;37.50;;;7.90;99.90;;;;;;5073422;28;20040;-65
2022/09/28 06:56:04;;;;;;;241.35;39.85;;;8.00;99.90;;;;;;5075212;28;20040;-65
2022/09/28 06:58:31;;;;;;;123.25;26.95;;;8.00;99.90;;;;;;5092629;28;20522;-65
2022/09/28 07:01:00;;;;;;;101.00;24.67;;;8.10;99.90;;;;;;5088892;28;20046;-65
2022/09/28 07:03:26;;;;;;;168.38;31.30;;;8.20;99.90;;;;;;5068605;28;20089;-65
2022/09/28 07:05:54;;;;;;;100.80;23.63;;;8.20;99.90;;;;;;5091858;28;20032;-70
2022/09/28 07:08:23;;;;;;;132.15;29.98;;;8.10;99.90;;;;;;5069674;28;20035;-70
2022/09/28 07:10:54;;;;;;;186.63;32.15;;;8.10;99.90;;;;;;5056917;28;20044;-70
2022/09/28 07:13:27;;;;;;;183.15;33.80;;;8.10;99.90;;;;;;5069582;28;20566;-70
2022/09/28 07:15:54;;;;;;;83.00;24.17;;;8.10;99.90;;;;;;5074717;28;20055;-70
2022/09/28 07:18:20;;;;;;;72.15;22.73;;;8.20;99.90;;;;;;5093976;28;20119;-71
2022/09/28 07:20:46;;;;;;;59.88;20.30;;;8.30;99.90;;;;;;5061733;28;20127;-70
2022/09/28 07:23:12;;;;;;;29.02;17.02;;;8.40;99.90;;;;;;5061562;28;20036;-70
2022/09/28 07:25:44;;;;;;;26.17;16.85;;;8.50;99.90;;;;;;5072781;28;20040;-70
2022/09/28 07:28:10;;;;;;;28.98;17.33;;;8.60;99.90;;;;;;5075985;28;20124;-65
2022/09/28 07:30:37;;;;;;;26.33;16.55;;;8.60;99.90;;;;;;5055533;28;20511;-65
2022/09/28 07:33:05;;;;;;;25.73;14.85;;;8.70;99.90;;;;;;5057931;28;20032;-65
2022/09/28 07:35:33;;;;;;;27.77;15.25;;;8.80;99.90;;;;;;5075633;28;20040;-65
2022/09/28 07:38:04;;;;;;;23.25;13.70;;;9.00;99.90;;;;;;5059568;28;20094;-65
2022/09/28 07:43:19;;;;;;;24.52;13.85;;;9.20;99.90;;;;;;5092256;28;20036;-65
2022/09/28 07:45:46;;;;;;;22.50;13.77;;;9.30;99.90;;;;;;5057242;28;20526;-65
2022/09/28 07:48:17;;;;;;;21.42;13.10;;;9.40;99.90;;;;;;5073918;28;20333;-65
2022/09/28 07:50:56;;;;;;;19.00;12.85;;;9.50;99.90;;;;;;5073648;28;20036;-65
2022/09/28 07:53:23;;;;;;;21.50;14.02;;;9.70;99.90;;;;;;5070469;28;20090;-65
2022/09/28 07:55:54;;;;;;;20.08;12.40;;;9.80;99.90;;;;;;5059105;28;20064;-66
2022/09/28 07:58:21;;;;;;;15.80;11.05;;;9.90;99.90;;;;;;5064776;28;20075;-65
2022/09/28 08:00:48;;;;;;;17.27;10.75;;;10.10;99.90;;;;;;5080806;28;20040;-66
2022/09/28 08:03:20;;;;;;;15.77;9.85;;;10.20;99.90;;;;;;5057886;28;20044;-66
2022/09/28 08:05:46;;;;;;;14.50;10.38;;;10.40;99.90;;;;;;5055260;28;20048;-66
2022/09/28 08:08:13;;;;;;;12.82;8.45;;;10.60;99.90;;;;;;5079297;28;20083;-67
2022/09/28 08:10:41;;;;;;;10.18;7.53;;;10.70;99.90;;;;;;5067237;28;20127;-66
2022/09/28 08:13:07;;;;;;;10.60;7.38;;;11.00;99.90;;;;;;5081773;28;20075;-67
2022/09/28 08:15:37;;;;;;;9.73;7.30;;;11.40;99.90;;;;;;5055972;28;20076;-67
2022/09/28 08:18:03;;;;;;;9.32;6.38;;;12.10;99.90;;;;;;5056938;28;20044;-67
2022/09/28 08:23:15;;;;;;;9.05;5.15;;;13.60;99.90;;;;;;5073846;28;20485;-68
2022/09/28 08:25:49;;;;;;;6.60;3.83;;;14.30;99.90;;;;;;5056149;28;20690;-69
2022/09/28 08:28:16;;;;;;;6.70;4.10;;;14.90;99.90;;;;;;5039631;28;20381;-76
2022/09/28 08:30:44;;;;;;;7.03;4.32;;;15.50;99.90;;;;;;5071483;28;20041;-69
2022/09/28 08:33:11;;;;;;;4.57;3.42;;;16.00;99.90;;;;;;5058628;28;20036;-69
2022/09/28 08:35:37;;;;;;;7.68;4.00;;;16.40;99.90;;;;;;5071886;28;20484;-69
2022/09/28 08:38:03;;;;;;;5.25;4.07;;;16.90;99.90;;;;;;5067860;28;20496;-74
2022/09/28 08:40:48;;;;;;;4.00;3.15;;;17.30;99.90;;;;;;5089445;28;20035;-74
2022/09/28 08:43:34;;;;;;;5.68;3.20;;;17.80;99.90;;;;;;5069940;28;20089;-74
2022/09/28 08:46:00;;;;;;;4.80;2.58;;;18.20;99.90;;;;;;5038256;28;20052;-72
2022/09/28 08:48:43;;;;;;;5.38;2.15;;;18.50;99.90;;;;;;5086347;28;20051;-73
2022/09/28 08:51:27;;;;;;;4.38;1.50;;;18.80;99.90;;;;;;5087677;28;20063;-73
2022/09/28 08:54:02;;;;;;;4.60;2.05;;;18.90;99.90;;;;;;5069542;28;20057;-73
2022/09/28 08:56:41;;;;;;;5.03;1.52;;;18.90;99.90;;;;;;5085816;28;20028;-73
2022/09/28 08:59:40;;;;;;;5.13;1.98;;;19.00;99.90;;;;;;5052869;28;20035;-73
2022/09/28 09:02:15;;;;;;;4.67;2.13;;;19.40;99.90;;;;;;5082765;28;20028;-73
2022/09/28 09:04:42;;;;;;;4.70;2.10;;;19.60;99.90;;;;;;5084996;28;20052;-73
2022/09/28 09:07:29;;;;;;;3.08;1.70;;;19.30;99.90;;;;;;5055463;28;20071;-74
2022/09/28 09:10:23;;;;;;;2.97;1.45;;;18.60;99.90;;;;;;5074299;28;20039;-70
2022/09/28 09:13:11;;;;;;;3.25;2.05;;;18.70;99.90;;;;;;5065663;28;20044;-73
2022/09/28 09:15:59;;;;;;;4.07;1.85;;;18.80;99.90;;;;;;5053960;28;20515;-73
2022/09/28 09:18:36;;;;;;;2.97;2.08;;;18.40;99.90;;;;;;5071857;28;20051;-73
2022/09/28 09:21:39;;;;;;;5.43;1.77;;;17.80;99.90;;;;;;5071845;28;20111;-76
2022/09/28 09:24:17;;;;;;;2.58;1.27;;;18.20;99.90;;;;;;5066828;28;20538;-77
2022/09/28 09:26:43;;;;;;;5.72;1.58;;;18.40;99.90;;;;;;5072911;28;20063;-77
2022/09/28 09:29:43;;;;;;;3.17;1.65;;;19.10;99.90;;;;;;5054420;28;20489;-77
2022/09/28 09:32:39;;;;;;;2.13;1.35;;;19.50;99.90;;;;;;5052195;28;20048;-76
2022/09/28 09:35:18;;;;;;;2.33;1.00;;;19.40;99.90;;;;;;5053884;28;20041;-76
2022/09/28 09:38:29;;;;;;;2.47;1.27;;;18.90;99.90;;;;;;5053715;28;20039;-76
2022/09/28 09:41:15;;;;;;;3.67;1.35;;;18.80;99.90;;;;;;5033301;28;20171;-76
2022/09/28 09:44:12;;;;;;;2.05;0.70;;;18.90;99.90;;;;;;5054094;28;20047;-76
2022/09/28 09:46:45;;;;;;;2.20;0.70;;;18.90;99.90;;;;;;5037361;28;20119;-76
2022/09/28 09:49:32;;;;;;;2.72;0.30;;;18.20;99.90;;;;;;5052678;28;20040;-76
2022/09/28 09:52:13;;;;;;;3.15;1.00;;;17.90;99.90;;;;;;5053964;28;20400;-76
2022/09/28 09:54:59;;;;;;;2.72;1.60;;;17.40;99.90;;;;;;5053736;28;20033;-76
2022/09/28 09:57:49;;;;;;;1.67;0.82;;;16.80;99.90;;;;;;5091684;28;20039;-76
2022/09/28 10:00:16;;;;;;;2.90;1.17;;;16.50;99.90;;;;;;5072704;28;20487;-76
2022/09/28 10:02:46;;;;;;;3.75;0.98;;;17.20;99.90;;;;;;5074730;28;20079;-76
2022/09/28 10:05:11;;;;;;;2.20;0.52;;;18.20;99.90;;;;;;5074610;28;20517;-76
2022/09/28 10:08:03;;;;;;;1.20;0.43;;;19.00;99.90;;;;;;5085465;28;20032;-76
2022/09/28 10:10:36;;;;;;;0.98;0.40;;;19.60;99.90;;;;;;5053696;28;20051;-76
2022/09/28 10:13:03;;;;;;;1.00;0.40;;;20.30;99.90;;;;;;5047478;28;20052;-78
2022/09/28 10:15:32;;;;;;;1.48;0.40;;;21.00;99.90;;;;;;5071148;28;20117;-78
2022/09/28 10:18:05;;;;;;;2.47;1.58;;;21.10;99.90;;;;;;5071213;28;20044;-78
2022/09/28 10:20:36;;;;;;;3.33;0.93;;;21.10;99.90;;;;;;5052342;28;20036;-78
2022/09/28 10:23:08;;;;;;;1.15;0.40;;;21.00;99.90;;;;;;5070835;28;20036;-78
2022/09/28 10:25:37;;;;;;;2.55;1.02;;;20.60;99.90;;;;;;5070894;28;20040;-78
2022/09/28 10:28:05;;;;;;;2.65;1.17;;;19.70;99.90;;;;;;5053101;28;20368;-78
2022/09/28 10:30:41;;;;;;;1.15;0.40;;;18.70;99.90;;;;;;5069271;28;20055;-78
2022/09/28 10:33:29;;;;;;;0.52;0.20;;;17.80;99.90;;;;;;5052837;28;20052;-78
2022/09/28 10:35:55;;;;;;;1.67;0.30;;;16.90;99.90;;;;;;5068620;28;20086;-78
2022/09/28 10:38:21;;;;;;;0.85;0.30;;;16.30;99.90;;;;;;5052569;28;20495;-79
2022/09/28 10:40:59;;;;;;;0.70;0.30;;;15.80;99.90;;;;;;5053006;28;20041;-79
2022/09/28 10:43:29;;;;;;;0.30;0.20;;;15.30;99.90;;;;;;5053550;28;20125;-79
2022/09/28 10:46:11;;;;;;;1.05;0.30;;;15.00;99.90;;;;;;5053063;28;20524;-79
2022/09/28 10:48:57;;;;;;;2.15;0.32;;;14.70;99.90;;;;;;5071206;28;20388;-79
2022/09/28 10:51:46;;;;;;;1.90;0.30;;;14.80;99.90;;;;;;5071891;28;20033;-79
2022/09/28 10:54:17;;;;;;;0.57;0.30;;;15.20;99.90;;;;;;5064301;28;20091;-79
2022/09/28 10:56:44;;;;;;;1.25;0.50;;;16.40;99.90;;;;;;5062410;28;20036;-79
2022/09/28 10:59:28;;;;;;;1.65;0.40;;;17.50;99.90;;;;;;5071400;28;20040;-79
2022/09/28 11:02:23;;;;;;;1.10;0.30;;;17.90;99.90;;;;;;5055561;28;20127;-80
2022/09/28 11:04:57;;;;;;;0.73;0.20;;;18.00;99.90;;;;;;5061319;28;20055;-79
2022/09/28 11:07:29;;;;;;;2.10;0.40;;;18.00;99.90;;;;;;5065400;28;20044;-79
2022/09/28 11:09:57;;;;;;;0.75;0.30;;;18.00;99.90;;;;;;5062940;28;20445;-79
2022/09/28 11:12:42;;;;;;;1.85;0.35;;;17.80;99.90;;;;;;5075026;28;20141;-79
2022/09/28 11:15:18;;;;;;;0.10;0.10;;;17.40;99.90;;;;;;5054373;28;20135;-79
2022/09/28 11:17:44;;;;;;;1.20;0.30;;;16.90;99.90;;;;;;5037841;28;20040;-80
2022/09/28 11:20:30;;;;;;;0.93;0.30;;;16.60;99.90;;;;;;5054797;28;20047;-80
2022/09/28 11:23:19;;;;;;;4.40;1.85;;;16.70;99.90;;;;;;5054468;28;20036;-80
2022/09/28 11:26:01;;;;;;;2.92;0.90;;;16.70;99.90;;;;;;5054326;28;20040;-79
2022/09/28 11:28:32;;;;;;;31.35;15.93;;;16.50;99.90;;;;;;5074137;28;20034;-77
2022/09/28 11:30:59;;;;;;;4.78;1.30;;;16.30;99.90;;;;;;5063255;28;20040;-76
2022/09/28 11:33:29;;;;;;;1.40;0.50;;;16.30;99.90;;;;;;5089129;28;20040;-76
2022/09/28 11:36:15;;;;;;;1.10;0.20;;;16.00;99.90;;;;;;5052412;28;20037;-76
2022/09/28 11:39:04;;;;;;;0.57;0.28;;;15.80;99.90;;;;;;5037755;28;20059;-77
2022/09/28 11:41:39;;;;;;;0.45;0.20;;;16.00;99.90;;;;;;5054302;28;20492;-75
2022/09/28 11:44:15;;;;;;;1.45;0.32;;;16.40;99.90;;;;;;5054205;28;20036;-75
2022/09/28 11:47:06;;;;;;;1.52;0.38;;;16.70;99.90;;;;;;5054094;28;20080;-75
2022/09/28 11:50:14;;;;;;;0.52;0.20;;;17.00;99.90;;;;;;5055606;28;20049;-76
2022/09/28 11:53:07;;;;;;;1.48;0.35;;;17.10;99.90;;;;;;5073212;28;20056;-75
2022/09/28 11:55:53;;;;;;;0.60;0.28;;;17.10;99.90;;;;;;5073105;28;20067;-76
2022/09/28 11:58:24;;;;;;;1.40;0.40;;;17.20;99.90;;;;;;5073390;28;20044;-76
2022/09/28 12:00:57;;;;;;;0.40;0.10;;;17.30;99.90;;;;;;5052101;28;20071;-76
2022/09/28 12:03:38;;;;;;;1.17;0.30;;;18.00;99.90;;;;;;5061665;28;20480;-76
2022/09/28 12:06:20;;;;;;;1.20;0.22;;;18.60;99.90;;;;;;5060973;28;20105;-79
2022/09/28 12:08:55;;;;;;;1.05;0.40;;;18.60;99.90;;;;;;5035764;28;20048;-78
2022/09/28 12:11:36;;;;;;;0.95;0.30;;;18.70;99.90;;;;;;5054952;28;20392;-78
2022/09/28 12:14:12;;;;;;;1.17;0.20;;;18.70;99.90;;;;;;5037051;28;20067;-78
2022/09/28 12:16:58;;;;;;;0.95;0.25;;;18.60;99.90;;;;;;5070694;28;20493;-79
2022/09/28 12:19:31;;;;;;;0.70;0.28;;;18.40;99.90;;;;;;5071500;28;20060;-81
2022/09/28 12:22:32;;;;;;;1.67;0.30;;;18.20;99.90;;;;;;5059442;28;20048;-78
2022/09/28 12:25:03;;;;;;;1.02;0.38;;;18.00;99.90;;;;;;5038665;28;20056;-77
2022/09/28 12:27:48;;;;;;;1.65;0.35;;;17.70;99.90;;;;;;5054853;28;20040;-77
2022/09/28 12:30:25;;;;;;;1.05;0.20;;;17.50;99.90;;;;;;5069798;28;20459;-78
2022/09/28 12:33:16;;;;;;;1.98;0.20;;;17.50;99.90;;;;;;5038179;28;20102;-76
2022/09/28 12:36:27;;;;;;;1.40;0.32;;;17.40;99.90;;;;;;5072483;28;20040;-80
2022/09/28 12:39:37;;;;;;;1.13;0.32;;;17.20;99.90;;;;;;5054197;28;20045;-77
2022/09/28 12:42:43;;;;;;;0.30;0.20;;;16.90;99.90;;;;;;5060818;28;20040;-77
2022/09/28 12:45:21;;;;;;;1.23;0.40;;;16.80;99.90;;;;;;5055777;28;20155;-77
2022/09/28 12:47:59;;;;;;;0.20;0.20;;;16.80;99.90;;;;;;5054891;28;20040;-74
2022/09/28 12:51:20;;;;;;;0.75;0.25;;;16.80;99.90;;;;;;5054455;28;20036;-76
2022/09/28 12:54:09;;;;;;;0.95;0.20;;;16.90;99.90;;;;;;4970772;28;20047;-77
2022/09/28 12:56:52;;;;;;;1.13;0.30;;;17.10;99.90;;;;;;5083246;28;20036;-75
2022/09/28 12:59:21;;;;;;;2.08;0.30;;;17.20;99.90;;;;;;5054408;28;20036;-76
2022/09/28 13:01:59;;;;;;;2.20;1.23;;;17.30;99.90;;;;;;5070740;28;20037;-75
2022/09/28 13:04:54;;;;;;;1.05;0.28;;;17.50;99.90;;;;;;5089798;28;20032;-76
2022/09/28 13:07:41;;;;;;;0.93;0.40;;;17.70;99.90;;;;;;5055627;28;20078;-76
2022/09/28 13:10:22;;;;;;;0.77;0.28;;;17.60;99.90;;;;;;5068141;28;20040;-76
2022/09/28 13:12:51;;;;;;;0.93;0.30;;;17.50;99.90;;;;;;5053310;28;20083;-75
2022/09/28 13:15:33;;;;;;;1.92;0.22;;;17.20;99.90;;;;;;5072881;28;20056;-75
2022/09/28 13:18:21;;;;;;;2.20;0.35;;;16.60;99.90;;;;;;5051666;28;20120;-76
2022/09/28 13:21:05;;;;;;;0.45;0.20;;;16.20;99.90;;;;;;5054934;28;20043;-74
2022/09/28 13:23:40;;;;;;;0.35;0.20;;;15.60;99.90;;;;;;5037616;28;20463;-74
2022/09/28 13:26:40;;;;;;;1.63;0.30;;;15.20;99.90;;;;;;5053614;28;20481;-74